sensor_id;sensor_type;location;lat;lon;timestamp;pressure;altitude;pressure_sealevel;temperature;humidity
60061;BME280;45933;51.336;12.612;2023-02-19T00:01:06;99819.47;;;10.53;67.74
60061;BME280;45933;51.336;12.612;2023-02-19T00:03:32;99820.38;;;10.51;67.86
60061;BME280;45933;51.336;12.612;2023-02-19T00:06:00;99817.75;;;10.52;67.95
60061;BME280;45933;51.336;12.612;2023-02-19T00:08:28;99809.06;;;10.52;67.95
60061;BME280;45933;51.336;12.612;2023-02-19T00:10:59;99809.91;;;10.55;67.75
60061;BME280;45933;51.336;12.612;2023-02-19T00:13:24;99801.28;;;10.50;68.17
60061;BME280;45933;51.336;12.612;2023-02-19T00:15:50;99806.47;;;10.55;67.80
60061;BME280;45933;51.336;12.612;2023-02-19T00:18:15;99809.09;;;10.50;68.02
60061;BME280;45933;51.336;12.612;2023-02-19T00:20:40;99806.47;;;10.52;68.23
60061;BME280;45933;51.336;12.612;2023-02-19T00:23:06;99803.88;;;10.50;68.08
60061;BME280;45933;51.336;12.612;2023-02-19T00:25:35;99798.59;;;10.56;68.08
60061;BME280;45933;51.336;12.612;2023-02-19T00:28:01;99795.22;;;10.50;68.46
60061;BME280;45933;51.336;12.612;2023-02-19T00:30:29;99797.78;;;10.53;68.16
60061;BME280;45933;51.336;12.612;2023-02-19T00:32:54;99784.75;;;10.53;68.16
60061;BME280;45933;51.336;12.612;2023-02-19T00:35:20;99785.66;;;10.50;68.27
60061;BME280;45933;51.336;12.612;2023-02-19T00:37:46;99793.47;;;10.50;68.46
60061;BME280;45933;51.336;12.612;2023-02-19T00:40:11;99796.03;;;10.53;68.21
60061;BME280;45933;51.336;12.612;2023-02-19T00:42:37;99784.72;;;10.56;68.28
60061;BME280;45933;51.336;12.612;2023-02-19T00:45:02;99781.28;;;10.51;68.06
60061;BME280;45933;51.336;12.612;2023-02-19T00:47:28;99783.00;;;10.55;67.79
60061;BME280;45933;51.336;12.612;2023-02-19T00:49:53;99774.28;;;10.54;68.06
60061;BME280;45933;51.336;12.612;2023-02-19T00:52:19;99774.28;;;10.54;68.26
60061;BME280;45933;51.336;12.612;2023-02-19T00:54:44;99767.31;;;10.58;68.28
60061;BME280;45933;51.336;12.612;2023-02-19T00:57:09;99768.22;;;10.55;68.40
60061;BME280;45933;51.336;12.612;2023-02-19T00:59:35;99761.31;;;10.51;69.03
60061;BME280;45933;51.336;12.612;2023-02-19T01:02:01;99763.03;;;10.49;68.84
60061;BME280;45933;51.336;12.612;2023-02-19T01:04:26;99768.25;;;10.49;69.03
60061;BME280;45933;51.336;12.612;2023-02-19T01:06:52;99767.44;;;10.45;69.09
60061;BME280;45933;51.336;12.612;2023-02-19T01:09:18;99770.06;;;10.45;69.26
60061;BME280;45933;51.336;12.612;2023-02-19T01:11:44;99775.31;;;10.41;69.27
60061;BME280;45933;51.336;12.612;2023-02-19T01:14:11;99764.94;;;10.36;69.83
60061;BME280;45933;51.336;12.612;2023-02-19T01:16:37;99771.91;;;10.34;70.08
60061;BME280;45933;51.336;12.612;2023-02-19T01:19:02;99763.22;;;10.32;70.07
60061;BME280;45933;51.336;12.612;2023-02-19T01:21:29;99756.38;;;10.24;70.90
60061;BME280;45933;51.336;12.612;2023-02-19T01:24:04;99757.22;;;10.21;71.07
60061;BME280;45933;51.336;12.612;2023-02-19T01:26:31;99751.22;;;10.14;71.60
60061;BME280;45933;51.336;12.612;2023-02-19T01:29:00;99758.13;;;10.15;71.53
60061;BME280;45933;51.336;12.612;2023-02-19T01:31:26;99748.66;;;10.10;71.68
60061;BME280;45933;51.336;12.612;2023-02-19T01:33:57;99745.16;;;10.14;71.73
60061;BME280;45933;51.336;12.612;2023-02-19T01:36:23;99740.81;;;10.11;71.46
60061;BME280;45933;51.336;12.612;2023-02-19T01:38:49;99727.78;;;10.11;70.77
60061;BME280;45933;51.336;12.612;2023-02-19T01:41:20;99725.19;;;10.13;71.21
60061;BME280;45933;51.336;12.612;2023-02-19T01:43:55;99723.50;;;10.09;71.75
60061;BME280;45933;51.336;12.612;2023-02-19T01:46:35;99716.53;;;10.09;71.42
60061;BME280;45933;51.336;12.612;2023-02-19T01:51:37;99705.28;;;10.06;71.55
60061;BME280;45933;51.336;12.612;2023-02-19T01:54:09;99706.19;;;10.03;71.79
60061;BME280;45933;51.336;12.612;2023-02-19T01:56:37;99713.09;;;10.04;71.46
60061;BME280;45933;51.336;12.612;2023-02-19T01:59:04;99692.28;;;10.04;71.71
60061;BME280;45933;51.336;12.612;2023-02-19T02:01:31;99696.59;;;10.05;71.56
60061;BME280;45933;51.336;12.612;2023-02-19T02:03:56;99687.91;;;10.06;71.66
60061;BME280;45933;51.336;12.612;2023-02-19T02:06:24;99688.75;;;10.07;71.49
60061;BME280;45933;51.336;12.612;2023-02-19T02:08:55;99679.16;;;10.12;71.68
60061;BME280;45933;51.336;12.612;2023-02-19T02:11:41;99675.69;;;10.11;71.52
60061;BME280;45933;51.336;12.612;2023-02-19T02:14:08;99669.66;;;10.09;71.36
60061;BME280;45933;51.336;12.612;2023-02-19T02:16:45;99658.34;;;10.13;71.59
60061;BME280;45933;51.336;12.612;2023-02-19T02:22:14;99644.38;;;10.19;71.29
60061;BME280;45933;51.336;12.612;2023-02-19T02:25:04;99632.19;;;10.21;71.08
60061;BME280;45933;51.336;12.612;2023-02-19T02:27:55;99627.03;;;10.16;71.06
60061;BME280;45933;51.336;12.612;2023-02-19T02:33:03;99632.28;;;10.13;71.13
60061;BME280;45933;51.336;12.612;2023-02-19T02:35:36;99624.44;;;10.15;71.79
60061;BME280;45933;51.336;12.612;2023-02-19T02:38:06;99618.41;;;10.13;71.17
60061;BME280;45933;51.336;12.612;2023-02-19T02:40:31;99599.31;;;10.11;71.21
60061;BME280;45933;51.336;12.612;2023-02-19T02:42:58;99602.78;;;10.13;71.57
60061;BME280;45933;51.336;12.612;2023-02-19T02:45:27;99597.56;;;10.13;71.15
60061;BME280;45933;51.336;12.612;2023-02-19T02:48:01;99597.59;;;10.10;71.24
60061;BME280;45933;51.336;12.612;2023-02-19T02:50:44;99594.06;;;10.15;71.22
60061;BME280;45933;51.336;12.612;2023-02-19T02:53:24;99596.72;;;10.12;71.42
60061;BME280;45933;51.336;12.612;2023-02-19T02:56:12;99598.47;;;10.10;71.53
60061;BME280;45933;51.336;12.612;2023-02-19T02:58:39;99598.47;;;10.09;71.52
60061;BME280;45933;51.336;12.612;2023-02-19T03:01:11;99588.91;;;10.11;71.11
60061;BME280;45933;51.336;12.612;2023-02-19T03:04:04;99586.31;;;10.09;71.39
60061;BME280;45933;51.336;12.612;2023-02-19T03:06:33;99584.66;;;10.04;71.50
60061;BME280;45933;51.336;12.612;2023-02-19T03:09:08;99582.03;;;10.05;71.50
60061;BME280;45933;51.336;12.612;2023-02-19T03:11:38;99575.97;;;10.02;71.63
60061;BME280;45933;51.336;12.612;2023-02-19T03:14:38;99576.75;;;10.10;71.42
60061;BME280;45933;51.336;12.612;2023-02-19T03:17:47;99573.28;;;10.11;71.35
60061;BME280;45933;51.336;12.612;2023-02-19T03:20:35;99555.09;;;10.06;71.55
60061;BME280;45933;51.336;12.612;2023-02-19T03:23:05;99547.34;;;10.00;72.01
60061;BME280;45933;51.336;12.612;2023-02-19T03:25:34;99541.28;;;10.03;72.21
60061;BME280;45933;51.336;12.612;2023-02-19T03:28:22;99548.28;;;9.94;72.38
60061;BME280;45933;51.336;12.612;2023-02-19T03:31:15;99543.84;;;10.04;71.92
60061;BME280;45933;51.336;12.612;2023-02-19T03:33:44;99549.06;;;10.01;72.32
60061;BME280;45933;51.336;12.612;2023-02-19T03:36:12;99541.28;;;10.03;71.65
60061;BME280;45933;51.336;12.612;2023-02-19T03:38:59;99551.59;;;10.10;71.67
60061;BME280;45933;51.336;12.612;2023-02-19T03:41:51;99552.50;;;10.08;72.43
60061;BME280;45933;51.336;12.612;2023-02-19T03:44:39;99559.44;;;10.07;72.05
60061;BME280;45933;51.336;12.612;2023-02-19T03:49:44;99554.34;;;9.98;72.60
60061;BME280;45933;51.336;12.612;2023-02-19T03:52:22;99534.41;;;9.97;72.66
60061;BME280;45933;51.336;12.612;2023-02-19T03:55:05;99534.31;;;10.03;72.12
60061;BME280;45933;51.336;12.612;2023-02-19T03:57:46;99530.03;;;9.96;72.46
60061;BME280;45933;51.336;12.612;2023-02-19T04:00:29;99531.75;;;10.00;72.31
60061;BME280;45933;51.336;12.612;2023-02-19T04:03:17;99532.66;;;9.96;72.98
60061;BME280;45933;51.336;12.612;2023-02-19T04:05:48;99526.59;;;9.95;72.81
60061;BME280;45933;51.336;12.612;2023-02-19T04:08:18;99530.97;;;9.93;72.59
60061;BME280;45933;51.336;12.612;2023-02-19T04:10:45;99529.22;;;9.94;72.36
60061;BME280;45933;51.336;12.612;2023-02-19T04:13:19;99532.59;;;10.01;72.50
60061;BME280;45933;51.336;12.612;2023-02-19T04:15:47;99531.78;;;9.97;72.80
60061;BME280;45933;51.336;12.612;2023-02-19T04:18:17;99541.34;;;9.97;72.55
60061;BME280;45933;51.336;12.612;2023-02-19T04:20:45;99546.56;;;9.97;72.60
60061;BME280;45933;51.336;12.612;2023-02-19T04:23:11;99550.88;;;9.98;72.88
60061;BME280;45933;51.336;12.612;2023-02-19T04:25:41;99543.00;;;10.02;72.56
60061;BME280;45933;51.336;12.612;2023-02-19T04:28:08;99549.94;;;10.03;72.39
60061;BME280;45933;51.336;12.612;2023-02-19T04:30:33;99555.94;;;10.07;72.43
60061;BME280;45933;51.336;12.612;2023-02-19T04:32:58;99569.88;;;10.07;72.27
60061;BME280;45933;51.336;12.612;2023-02-19T04:35:24;99555.03;;;10.11;72.39
60061;BME280;45933;51.336;12.612;2023-02-19T04:37:49;99563.75;;;10.10;72.28
60061;BME280;45933;51.336;12.612;2023-02-19T04:40:14;99563.75;;;10.10;72.68
60061;BME280;45933;51.336;12.612;2023-02-19T04:42:40;99559.38;;;10.13;72.11
60061;BME280;45933;51.336;12.612;2023-02-19T04:45:05;99556.75;;;10.13;71.95
60061;BME280;45933;51.336;12.612;2023-02-19T04:47:31;99566.28;;;10.14;72.03
60061;BME280;45933;51.336;12.612;2023-02-19T04:49:56;99574.09;;;10.14;71.59
60061;BME280;45933;51.336;12.612;2023-02-19T04:52:22;99572.38;;;10.15;71.71
60061;BME280;45933;51.336;12.612;2023-02-19T04:54:47;99565.47;;;10.12;71.82
60061;BME280;45933;51.336;12.612;2023-02-19T04:57:13;99572.34;;;10.16;71.45
60061;BME280;45933;51.336;12.612;2023-02-19T04:59:38;99567.19;;;10.12;71.80
60061;BME280;45933;51.336;12.612;2023-02-19T05:02:03;99561.97;;;10.12;71.47
60061;BME280;45933;51.336;12.612;2023-02-19T05:04:28;99555.03;;;10.12;71.45
60061;BME280;45933;51.336;12.612;2023-02-19T05:06:54;99555.09;;;10.06;71.63
60061;BME280;45933;51.336;12.612;2023-02-19T05:09:19;99552.44;;;10.11;71.10
60061;BME280;45933;51.336;12.612;2023-02-19T05:11:44;99561.16;;;10.08;70.82
60061;BME280;45933;51.336;12.612;2023-02-19T05:14:10;99559.41;;;10.09;70.73
60061;BME280;45933;51.336;12.612;2023-02-19T05:16:35;99562.91;;;10.06;71.06
60061;BME280;45933;51.336;12.612;2023-02-19T05:19:00;99566.38;;;10.07;70.60
60061;BME280;45933;51.336;12.612;2023-02-19T05:21:25;99562.03;;;10.06;70.85
60061;BME280;45933;51.336;12.612;2023-02-19T05:23:51;99573.31;;;10.08;70.81
60061;BME280;45933;51.336;12.612;2023-02-19T05:26:19;99575.00;;;10.10;70.97
60061;BME280;45933;51.336;12.612;2023-02-19T05:28:47;99570.72;;;10.08;70.72
60061;BME280;45933;51.336;12.612;2023-02-19T05:31:13;99572.44;;;10.09;70.61
60061;BME280;45933;51.336;12.612;2023-02-19T05:33:39;99581.13;;;10.09;70.51
60061;BME280;45933;51.336;12.612;2023-02-19T05:36:09;99579.41;;;10.08;71.09
60061;BME280;45933;51.336;12.612;2023-02-19T05:38:35;99577.63;;;10.10;70.55
60061;BME280;45933;51.336;12.612;2023-02-19T05:41:18;99579.25;;;10.17;70.71
60061;BME280;45933;51.336;12.612;2023-02-19T05:43:45;99581.94;;;10.11;71.00
60061;BME280;45933;51.336;12.612;2023-02-19T05:46:14;99578.47;;;10.14;70.52
60061;BME280;45933;51.336;12.612;2023-02-19T05:48:40;99580.19;;;10.15;70.64
60061;BME280;45933;51.336;12.612;2023-02-19T05:51:11;99588.78;;;10.20;70.51
60061;BME280;45933;51.336;12.612;2023-02-19T05:53:37;99588.81;;;10.17;70.94
60061;BME280;45933;51.336;12.612;2023-02-19T05:56:03;99587.13;;;10.14;70.46
60061;BME280;45933;51.336;12.612;2023-02-19T05:58:29;99585.41;;;10.13;71.02
60061;BME280;45933;51.336;12.612;2023-02-19T06:00:54;99597.63;;;10.08;71.19
60061;BME280;45933;51.336;12.612;2023-02-19T06:03:20;99595.88;;;10.09;71.03
60061;BME280;45933;51.336;12.612;2023-02-19T06:05:46;99595.91;;;10.06;71.09
60061;BME280;45933;51.336;12.612;2023-02-19T06:08:13;99596.75;;;10.09;71.25
60061;BME280;45933;51.336;12.612;2023-02-19T06:10:39;99593.31;;;10.04;71.56
60061;BME280;45933;51.336;12.612;2023-02-19T06:13:06;99592.47;;;10.04;71.88
60061;BME280;45933;51.336;12.612;2023-02-19T06:15:31;99602.03;;;10.03;72.19
60061;BME280;45933;51.336;12.612;2023-02-19T06:17:57;99599.41;;;10.02;72.02
60061;BME280;45933;51.336;12.612;2023-02-19T06:20:22;99605.47;;;10.04;71.76
60061;BME280;45933;51.336;12.612;2023-02-19T06:22:50;99618.47;;;10.08;72.11
60061;BME280;45933;51.336;12.612;2023-02-19T06:25:16;99616.72;;;10.06;72.18
60061;BME280;45933;51.336;12.612;2023-02-19T06:27:42;99621.13;;;10.02;72.40
60061;BME280;45933;51.336;12.612;2023-02-19T06:30:07;99627.16;;;10.07;72.17
60061;BME280;45933;51.336;12.612;2023-02-19T06:32:33;99634.06;;;10.07;72.28
60061;BME280;45933;51.336;12.612;2023-02-19T06:34:58;99640.19;;;10.07;72.50
60061;BME280;45933;51.336;12.612;2023-02-19T06:37:24;99638.41;;;10.09;72.07
60061;BME280;45933;51.336;12.612;2023-02-19T06:39:49;99641.00;;;10.12;71.90
60061;BME280;45933;51.336;12.612;2023-02-19T06:42:15;99654.03;;;10.09;72.40
60061;BME280;45933;51.336;12.612;2023-02-19T06:44:40;99656.63;;;10.12;72.00
60061;BME280;45933;51.336;12.612;2023-02-19T06:47:05;99677.41;;;10.15;71.73
60061;BME280;45933;51.336;12.612;2023-02-19T06:49:31;99688.69;;;10.14;71.03
60061;BME280;45933;51.336;12.612;2023-02-19T06:51:56;99700.94;;;10.08;69.30
60061;BME280;45933;51.336;12.612;2023-02-19T06:54:23;99707.91;;;10.01;67.91
60061;BME280;45933;51.336;12.612;2023-02-19T06:56:49;99713.19;;;9.95;67.41
60061;BME280;45933;51.336;12.612;2023-02-19T06:59:15;99721.94;;;9.88;66.20
60061;BME280;45933;51.336;12.612;2023-02-19T07:01:44;99728.13;;;9.76;66.06
60061;BME280;45933;51.336;12.612;2023-02-19T07:04:10;99739.47;;;9.64;65.95
60061;BME280;45933;51.336;12.612;2023-02-19T07:06:35;99737.78;;;9.54;65.57
60061;BME280;45933;51.336;12.612;2023-02-19T07:09:02;99732.72;;;9.39;65.76
60061;BME280;45933;51.336;12.612;2023-02-19T07:11:30;99756.13;;;9.33;66.12
60061;BME280;45933;51.336;12.612;2023-02-19T07:14:01;99757.91;;;9.28;65.95
60061;BME280;45933;51.336;12.612;2023-02-19T07:16:27;99759.72;;;9.13;65.48
60061;BME280;45933;51.336;12.612;2023-02-19T07:18:56;99777.94;;;9.09;65.23
60061;BME280;45933;51.336;12.612;2023-02-19T07:21:22;99784.06;;;8.99;65.77
60061;BME280;45933;51.336;12.612;2023-02-19T07:23:48;99797.06;;;8.91;65.83
60061;BME280;45933;51.336;12.612;2023-02-19T07:26:15;99795.38;;;8.84;65.63
60061;BME280;45933;51.336;12.612;2023-02-19T07:28:42;99811.00;;;8.76;65.96
60061;BME280;45933;51.336;12.612;2023-02-19T07:31:08;99796.28;;;8.71;65.47
60061;BME280;45933;51.336;12.612;2023-02-19T07:33:33;99807.53;;;8.68;65.98
60061;BME280;45933;51.336;12.612;2023-02-19T07:35:58;99820.56;;;8.62;66.12
60061;BME280;45933;51.336;12.612;2023-02-19T07:38:25;99840.47;;;8.58;65.55
60061;BME280;45933;51.336;12.612;2023-02-19T07:40:55;99837.88;;;8.52;65.77
60061;BME280;45933;51.336;12.612;2023-02-19T07:43:23;99838.75;;;8.45;65.70
60061;BME280;45933;51.336;12.612;2023-02-19T07:45:48;99845.66;;;8.43;66.03
60061;BME280;45933;51.336;12.612;2023-02-19T07:48:14;99844.81;;;8.38;66.11
60061;BME280;45933;51.336;12.612;2023-02-19T07:50:39;99855.22;;;8.36;65.89
60061;BME280;45933;51.336;12.612;2023-02-19T07:53:04;99870.78;;;8.35;66.03
60061;BME280;45933;51.336;12.612;2023-02-19T07:55:31;99889.81;;;8.29;65.25
60061;BME280;45933;51.336;12.612;2023-02-19T07:57:57;99905.38;;;8.25;65.82
60061;BME280;45933;51.336;12.612;2023-02-19T08:00:23;99902.78;;;8.22;66.01
60061;BME280;45933;51.336;12.612;2023-02-19T08:02:50;99911.44;;;8.18;65.87
60061;BME280;45933;51.336;12.612;2023-02-19T08:05:32;99915.78;;;8.12;65.97
60061;BME280;45933;51.336;12.612;2023-02-19T08:07:58;99925.25;;;8.10;66.24
60061;BME280;45933;51.336;12.612;2023-02-19T08:10:24;99921.81;;;8.07;66.17
60061;BME280;45933;51.336;12.612;2023-02-19T08:13:11;99924.41;;;8.08;66.01
60061;BME280;45933;51.336;12.612;2023-02-19T08:15:46;99941.69;;;8.03;66.33
60061;BME280;45933;51.336;12.612;2023-02-19T08:18:13;99943.41;;;8.01;65.70
60061;BME280;45933;51.336;12.612;2023-02-19T08:20:39;99947.72;;;8.01;65.92
60061;BME280;45933;51.336;12.612;2023-02-19T08:23:05;99959.88;;;8.02;66.05
60061;BME280;45933;51.336;12.612;2023-02-19T08:25:31;99965.91;;;7.98;65.62
60061;BME280;45933;51.336;12.612;2023-02-19T08:27:56;99972.84;;;7.97;66.11
60061;BME280;45933;51.336;12.612;2023-02-19T08:30:25;99971.94;;;7.95;65.58
60061;BME280;45933;51.336;12.612;2023-02-19T08:32:50;99984.94;;;7.95;66.39
60061;BME280;45933;51.336;12.612;2023-02-19T08:35:16;100005.69;;;7.95;66.35
60061;BME280;45933;51.336;12.612;2023-02-19T08:37:41;100005.69;;;7.95;65.67
60061;BME280;45933;51.336;12.612;2023-02-19T08:40:06;100014.34;;;7.93;65.53
60061;BME280;45933;51.336;12.612;2023-02-19T08:42:32;100026.44;;;7.91;65.16
60061;BME280;45933;51.336;12.612;2023-02-19T08:44:57;100028.13;;;7.84;65.36
60061;BME280;45933;51.336;12.612;2023-02-19T08:47:22;100040.22;;;7.79;65.14
60061;BME280;45933;51.336;12.612;2023-02-19T08:49:48;100048.88;;;7.78;65.53
60061;BME280;45933;51.336;12.612;2023-02-19T08:52:13;100048.84;;;7.75;65.98
60061;BME280;45933;51.336;12.612;2023-02-19T08:54:38;100057.50;;;7.72;65.85
60061;BME280;45933;51.336;12.612;2023-02-19T08:57:04;100065.25;;;7.68;65.35
60061;BME280;45933;51.336;12.612;2023-02-19T08:59:30;100063.53;;;7.70;65.89
60061;BME280;45933;51.336;12.612;2023-02-19T09:01:58;100068.72;;;7.68;65.44
60061;BME280;45933;51.336;12.612;2023-02-19T09:04:24;100073.03;;;7.66;65.07
60061;BME280;45933;51.336;12.612;2023-02-19T09:06:49;100082.53;;;7.67;65.03
60061;BME280;45933;51.336;12.612;2023-02-19T09:09:15;100083.41;;;7.69;65.80
60061;BME280;45933;51.336;12.612;2023-02-19T09:11:40;100089.50;;;7.74;65.42
60061;BME280;45933;51.336;12.612;2023-02-19T09:14:06;100091.25;;;7.75;64.06
60061;BME280;45933;51.336;12.612;2023-02-19T09:16:34;100100.78;;;7.79;64.55
60061;BME280;45933;51.336;12.612;2023-02-19T09:19:00;100108.59;;;7.82;64.10
60061;BME280;45933;51.336;12.612;2023-02-19T09:21:25;100118.16;;;7.91;64.16
60061;BME280;45933;51.336;12.612;2023-02-19T09:23:51;100115.56;;;7.94;64.41
60061;BME280;45933;51.336;12.612;2023-02-19T09:26:16;100118.19;;;7.97;63.39
60061;BME280;45933;51.336;12.612;2023-02-19T09:28:41;100119.94;;;8.00;64.24
60061;BME280;45933;51.336;12.612;2023-02-19T09:31:13;100127.75;;;8.03;64.03
60061;BME280;45933;51.336;12.612;2023-02-19T09:33:42;100132.94;;;8.06;63.89
60061;BME280;45933;51.336;12.612;2023-02-19T09:36:08;100120.84;;;8.08;63.81
60061;BME280;45933;51.336;12.612;2023-02-19T09:38:34;100134.72;;;8.15;63.79
60061;BME280;45933;51.336;12.612;2023-02-19T09:41:05;100136.53;;;8.29;64.75
60061;BME280;45933;51.336;12.612;2023-02-19T09:43:32;100148.78;;;8.55;66.45
60061;BME280;45933;51.336;12.612;2023-02-19T09:49:04;100160.22;;;9.36;61.34
60061;BME280;45933;51.336;12.612;2023-02-19T09:51:34;100158.47;;;9.72;61.89
60061;BME280;45933;51.336;12.612;2023-02-19T09:54:00;100161.94;;;9.88;59.35
60061;BME280;45933;51.336;12.612;2023-02-19T09:56:28;100162.78;;;10.02;59.60
60061;BME280;45933;51.336;12.612;2023-02-19T09:58:56;100175.75;;;10.16;60.25
60061;BME280;45933;51.336;12.612;2023-02-19T10:01:25;100177.53;;;10.25;58.46
60061;BME280;45933;51.336;12.612;2023-02-19T10:03:52;100174.88;;;10.32;58.74
60061;BME280;45933;51.336;12.612;2023-02-19T10:06:20;100180.88;;;10.54;58.77
60061;BME280;45933;51.336;12.612;2023-02-19T10:08:51;100179.06;;;10.76;57.98
60061;BME280;45933;51.336;12.612;2023-02-19T10:11:18;100179.75;;;11.06;57.83
60061;BME280;45933;51.336;12.612;2023-02-19T10:14:07;100189.91;;;11.50;58.75
60061;BME280;45933;51.336;12.612;2023-02-19T10:16:39;100195.06;;;11.61;54.41
60061;BME280;45933;51.336;12.612;2023-02-19T10:19:08;100214.06;;;11.73;54.89
60061;BME280;45933;51.336;12.612;2023-02-19T10:21:36;100224.63;;;11.60;53.31
60061;BME280;45933;51.336;12.612;2023-02-19T10:24:03;100221.16;;;11.59;53.06
60061;BME280;45933;51.336;12.612;2023-02-19T10:26:30;100224.69;;;11.55;54.38
60061;BME280;45933;51.336;12.612;2023-02-19T10:29:02;100229.97;;;11.46;53.70
60061;BME280;45933;51.336;12.612;2023-02-19T10:31:31;100226.50;;;11.42;54.32
60061;BME280;45933;51.336;12.612;2023-02-19T10:33:58;100221.31;;;11.38;55.43
60061;BME280;45933;51.336;12.612;2023-02-19T10:38:55;100241.38;;;11.28;53.82
60061;BME280;45933;51.336;12.612;2023-02-19T10:41:23;100244.00;;;11.22;52.73
60061;BME280;45933;51.336;12.612;2023-02-19T10:44:05;100247.53;;;11.18;53.57
60061;BME280;45933;51.336;12.612;2023-02-19T10:46:34;100255.47;;;10.90;51.84
60061;BME280;45933;51.336;12.612;2023-02-19T10:49:03;100246.84;;;10.74;52.58
60061;BME280;45933;51.336;12.612;2023-02-19T10:51:38;100259.94;;;10.53;51.80
60061;BME280;45933;51.336;12.612;2023-02-19T10:54:27;100257.41;;;10.35;52.55
60061;BME280;45933;51.336;12.612;2023-02-19T10:56:52;100271.28;;;10.20;52.70
60061;BME280;45933;51.336;12.612;2023-02-19T10:59:27;100283.44;;;10.03;51.79
60061;BME280;45933;51.336;12.612;2023-02-19T11:04:19;100296.44;;;10.01;53.34
60061;BME280;45933;51.336;12.612;2023-02-19T11:06:44;100291.25;;;10.04;53.80
60061;BME280;45933;51.336;12.612;2023-02-19T11:09:36;100300.81;;;10.10;52.61
60061;BME280;45933;51.336;12.612;2023-02-19T11:12:02;100313.81;;;9.94;51.69
60061;BME280;45933;51.336;12.612;2023-02-19T11:14:30;100306.00;;;9.96;52.65
60061;BME280;45933;51.336;12.612;2023-02-19T11:16:58;100319.88;;;9.89;52.54
60061;BME280;45933;51.336;12.612;2023-02-19T11:19:35;100319.88;;;9.90;52.87
60061;BME280;45933;51.336;12.612;2023-02-19T11:22:37;100319.03;;;9.91;53.84
60061;BME280;45933;51.336;12.612;2023-02-19T11:28:02;100319.88;;;9.95;53.51
60061;BME280;45933;51.336;12.612;2023-02-19T11:30:35;100331.16;;;9.91;53.24
60061;BME280;45933;51.336;12.612;2023-02-19T11:35:44;100336.38;;;9.94;52.88
60061;BME280;45933;51.336;12.612;2023-02-19T11:38:11;100340.75;;;9.97;51.92
60061;BME280;45933;51.336;12.612;2023-02-19T11:40:49;100336.38;;;10.06;51.94
60061;BME280;45933;51.336;12.612;2023-02-19T11:43:42;100346.00;;;10.26;54.03
60061;BME280;45933;51.336;12.612;2023-02-19T11:46:19;100346.84;;;10.28;52.57
60061;BME280;45933;51.336;12.612;2023-02-19T11:51:20;100353.81;;;10.41;51.59
60061;BME280;45933;51.336;12.612;2023-02-19T11:53:57;100354.66;;;10.43;50.51
60061;BME280;45933;51.336;12.612;2023-02-19T11:56:27;100348.56;;;10.48;50.91
60061;BME280;45933;51.336;12.612;2023-02-19T11:59:01;100353.81;;;10.41;49.73
60061;BME280;45933;51.336;12.612;2023-02-19T12:07:54;100350.34;;;10.39;50.50
60061;BME280;45933;51.336;12.612;2023-02-19T12:13:28;100348.59;;;10.27;50.23
60061;BME280;45933;51.336;12.612;2023-02-19T12:16:12;100350.31;;;10.37;52.28
60061;BME280;45933;51.336;12.612;2023-02-19T12:24:39;100353.75;;;10.68;52.20
60061;BME280;45933;51.336;12.612;2023-02-19T12:35:59;100351.78;;;11.45;51.55
60061;BME280;45933;51.336;12.612;2023-02-19T12:38:42;100360.19;;;11.99;50.27
60061;BME280;45933;51.336;12.612;2023-02-19T12:41:26;100356.41;;;12.40;46.56
60061;BME280;45933;51.336;12.612;2023-02-19T12:44:00;100364.56;;;12.97;45.70
60061;BME280;45933;51.336;12.612;2023-02-19T12:46:32;100351.09;;;13.31;45.57
60061;BME280;45933;51.336;12.612;2023-02-19T12:49:09;100351.41;;;13.73;45.59
60061;BME280;45933;51.336;12.612;2023-02-19T12:51:39;100360.53;;;14.06;44.06
60061;BME280;45933;51.336;12.612;2023-02-19T12:54:13;100364.22;;;14.50;43.29
60061;BME280;45933;51.336;12.612;2023-02-19T12:56:50;100369.84;;;14.76;41.02
60061;BME280;45933;51.336;12.612;2023-02-19T12:59:25;100365.38;;;14.81;41.47
60061;BME280;45933;51.336;12.612;2023-02-19T13:02:20;100361.91;;;14.82;43.25
60061;BME280;45933;51.336;12.612;2023-02-19T13:05:06;100366.78;;;14.53;40.59
60061;BME280;45933;51.336;12.612;2023-02-19T13:07:43;100370.72;;;14.26;40.76
60061;BME280;45933;51.336;12.612;2023-02-19T13:10:33;100386.63;;;14.12;42.94
60061;BME280;45933;51.336;12.612;2023-02-19T13:13:06;100381.78;;;13.86;40.83
60061;BME280;45933;51.336;12.612;2023-02-19T13:15:42;100393.06;;;13.91;43.03
60061;BME280;45933;51.336;12.612;2023-02-19T13:18:22;100391.19;;;14.01;43.18
60061;BME280;45933;51.336;12.612;2023-02-19T13:20:48;100388.47;;;14.08;41.58
60061;BME280;45933;51.336;12.612;2023-02-19T13:23:23;100396.16;;;14.19;40.34
60061;BME280;45933;51.336;12.612;2023-02-19T13:36:58;100390.47;;;14.47;40.03
60061;BME280;45933;51.336;12.612;2023-02-19T13:39:24;100391.53;;;14.35;39.89
60061;BME280;45933;51.336;12.612;2023-02-19T13:41:52;100394.44;;;14.17;39.12
60061;BME280;45933;51.336;12.612;2023-02-19T13:44:20;100389.06;;;14.26;39.99
60061;BME280;45933;51.336;12.612;2023-02-19T13:46:48;100385.53;;;14.27;39.14
60061;BME280;45933;51.336;12.612;2023-02-19T13:52:02;100402.31;;;14.17;38.57
60061;BME280;45933;51.336;12.612;2023-02-19T13:54:46;100400.53;;;14.17;39.53
60061;BME280;45933;51.336;12.612;2023-02-19T13:57:25;100397.13;;;14.12;39.22
60061;BME280;45933;51.336;12.612;2023-02-19T13:59:53;100405.88;;;14.11;39.15
60061;BME280;45933;51.336;12.612;2023-02-19T14:05:03;100417.84;;;14.29;39.21
60061;BME280;45933;51.336;12.612;2023-02-19T14:07:36;100423.81;;;14.40;38.94
60061;BME280;45933;51.336;12.612;2023-02-19T14:10:13;100423.75;;;14.43;37.79
60061;BME280;45933;51.336;12.612;2023-02-19T14:12:57;100433.25;;;14.52;38.29